Time;durP1;ratioP1;P1;durP2;ratioP2;P2;SDS_P1;SDS_P2;PMS_P1;PMS_P2;Temp;Humidity;BMP_temperature;BMP_pressure;BME280_temperature;BME280_humidity;BME280_pressure;Samples;Min_cycle;Max_cycle;Signal;HPM_P1;HPM_P2
2023/07/13 00:01:56;;;;;;;0.62;0.47;;;;;;;27.09;54.83;99614.81;4397785;32;32330;-84
2023/07/13 00:04:25;;;;;;;0.70;0.40;;;;;;;27.17;54.44;99614.78;4414538;32;32939;-84
2023/07/13 00:06:53;;;;;;;0.50;0.50;;;;;;;27.07;54.76;99614.16;4404212;32;32514;-84
2023/07/13 00:09:21;;;;;;;0.93;0.73;;;;;;;27.04;54.93;99606.34;4426183;32;32998;-84
2023/07/13 00:11:52;;;;;;;0.35;0.25;;;;;;;27.06;54.69;99607.00;4405680;32;33407;-83
2023/07/13 00:14:20;;;;;;;32.95;0.90;;;;;;;27.04;54.58;99587.38;4412816;32;33474;-84
2023/07/13 00:16:47;;;;;;;0.95;0.68;;;;;;;26.93;54.33;99577.81;4428334;32;34184;-84
2023/07/13 00:19:15;;;;;;;0.13;0.10;;;;;;;27.30;52.10;99568.13;4404484;32;33356;-84
2023/07/13 00:21:43;;;;;;;0.10;0.10;;;;;;;27.14;52.05;99563.62;4416869;32;34180;-84
2023/07/13 00:24:13;;;;;;;1.48;0.47;;;;;;;27.24;50.91;99545.28;4430073;32;34081;-84
2023/07/13 00:26:40;;;;;;;1.08;0.70;;;;;;;27.36;50.55;99540.28;4417469;32;34133;-82
2023/07/13 00:29:08;;;;;;;0.70;0.70;;;;;;;27.25;50.15;99533.44;4427256;32;32799;-84
2023/07/13 00:31:36;;;;;;;0.50;0.20;;;;;;;27.26;50.04;99521.56;4390729;32;33339;-82
2023/07/13 00:34:04;;;;;;;0.30;0.30;;;;;;;27.37;49.91;99516.72;4428914;32;34063;-84
2023/07/13 00:36:32;;;;;;;0.90;0.55;;;;;;;27.31;50.11;99513.72;4432116;32;34757;-84
2023/07/13 00:38:59;;;;;;;1.08;0.82;;;;;;;27.22;49.44;99517.50;4414951;32;33461;-85
2023/07/13 00:41:28;;;;;;;0.43;0.30;;;;;;;27.34;48.58;99517.06;4414310;32;33904;-85
2023/07/13 00:43:56;;;;;;;0.70;0.70;;;;;;;27.19;47.95;99507.03;4414634;32;33320;-83
2023/07/13 00:46:36;;;;;;;0.20;0.20;;;;;;;27.31;46.97;99508.28;4414931;32;34226;-83
2023/07/13 00:49:06;;;;;;;0.35;0.20;;;;;;;27.43;45.03;99495.12;4404420;32;32997;-84
2023/07/13 00:51:40;;;;;;;0.10;0.10;;;;;;;27.27;45.54;99493.41;4420557;32;32459;-84
2023/07/13 00:54:12;;;;;;;0.10;0.10;;;;;;;27.35;45.35;99480.81;4405515;32;33730;-83
2023/07/13 00:56:41;;;;;;;0.08;0.08;;;;;;;27.35;45.36;99486.22;4413654;32;34092;-83
2023/07/13 00:59:10;;;;;;;3.75;1.08;;;;;;;27.40;45.81;99491.97;4416342;32;33271;-83
2023/07/13 01:01:39;;;;;;;0.43;0.43;;;;;;;27.30;46.99;99484.94;4419006;32;32271;-83
2023/07/13 01:04:07;;;;;;;0.10;0.10;;;;;;;27.28;47.25;99486.12;4424847;32;34803;-84
2023/07/13 01:06:37;;;;;;;1.50;0.50;;;;;;;27.37;46.80;99481.47;4427402;32;33709;-84
2023/07/13 01:09:06;;;;;;;0.10;0.10;;;;;;;27.39;47.13;99465.84;4415781;32;33621;-84
2023/07/13 01:11:34;;;;;;;0.00;0.00;;;;;;;27.29;47.63;99468.81;4414611;32;33445;-84
2023/07/13 01:14:03;;;;;;;1.65;0.43;;;;;;;27.25;47.71;99467.50;4405320;32;34739;-83
2023/07/13 01:16:33;;;;;;;0.30;0.30;;;;;;;27.46;47.34;99473.09;4417385;32;34029;-84
2023/07/13 01:19:01;;;;;;;0.75;0.75;;;;;;;27.30;47.27;99468.66;4402407;32;33792;-84
2023/07/13 01:21:32;;;;;;;0.20;0.10;;;;;;;27.06;47.97;99477.81;4414029;32;32490;-83
2023/07/13 01:24:00;;;;;;;0.15;0.15;;;;;;;27.08;48.08;99483.06;4417757;32;33284;-84
2023/07/13 01:26:27;;;;;;;0.45;0.45;;;;;;;27.22;47.37;99470.59;4416475;32;32916;-84
2023/07/13 01:28:56;;;;;;;0.00;0.00;;;;;;;27.14;46.63;99476.06;4433412;32;33694;-83
2023/07/13 01:31:24;;;;;;;0.20;0.20;;;;;;;27.05;47.39;99475.25;4426576;32;33424;-84
2023/07/13 01:33:51;;;;;;;0.20;0.20;;;;;;;26.93;47.80;99472.12;4430038;32;34136;-83
2023/07/13 01:36:21;;;;;;;0.10;0.10;;;;;;;26.86;48.11;99467.59;4418753;32;35860;-83
2023/07/13 01:38:49;;;;;;;1.77;0.68;;;;;;;26.85;48.14;99457.81;4416238;32;33647;-83
2023/07/13 01:41:16;;;;;;;0.25;0.25;;;;;;;26.95;48.00;99458.41;4403851;32;32087;-83
2023/07/13 01:43:46;;;;;;;0.32;0.30;;;;;;;26.80;48.33;99456.47;4423400;32;31511;-83
2023/07/13 01:46:14;;;;;;;0.00;0.00;;;;;;;26.77;48.20;99445.97;4428352;32;34424;-83
2023/07/13 01:48:44;;;;;;;1.62;1.52;;;;;;;26.67;48.15;99450.78;4415831;32;32233;-83
2023/07/13 01:51:13;;;;;;;0.10;0.10;;;;;;;26.44;48.55;99449.91;4432711;32;33996;-84
2023/07/13 01:53:40;;;;;;;1.20;0.20;;;;;;;26.45;48.63;99451.63;4432278;32;33931;-84
2023/07/13 01:56:08;;;;;;;0.10;0.10;;;;;;;26.47;48.70;99452.28;4413884;32;33882;-83
2023/07/13 01:58:36;;;;;;;0.00;0.00;;;;;;;26.43;49.01;99453.66;4417259;32;32989;-83
2023/07/13 02:01:04;;;;;;;0.47;0.47;;;;;;;26.31;49.93;99439.66;4403842;32;33327;-83
2023/07/13 02:03:32;;;;;;;0.70;0.70;;;;;;;26.10;50.96;99448.34;4417313;32;33516;-83
2023/07/13 02:05:59;;;;;;;0.00;0.00;;;;;;;26.19;50.75;99431.06;4431137;32;34150;-83
2023/07/13 02:08:27;;;;;;;0.00;0.00;;;;;;;26.26;50.77;99437.47;4416402;32;33551;-83
2023/07/13 02:10:55;;;;;;;0.25;0.25;;;;;;;26.28;50.79;99450.81;4403253;32;32360;-83
2023/07/13 02:13:22;;;;;;;0.62;0.57;;;;;;;26.22;51.28;99459.66;4426107;32;34045;-84
2023/07/13 02:15:51;;;;;;;0.40;0.40;;;;;;;26.17;51.53;99459.34;4418536;32;34301;-84
2023/07/13 02:18:19;;;;;;;1.50;0.75;;;;;;;26.24;51.58;99461.16;4429566;32;33523;-84
2023/07/13 02:20:46;;;;;;;0.20;0.20;;;;;;;26.09;52.14;99454.78;4417469;32;33643;-84
2023/07/13 02:23:14;;;;;;;0.28;0.20;;;;;;;26.18;51.74;99448.34;4427532;32;34034;-84
2023/07/13 02:25:41;;;;;;;0.10;0.10;;;;;;;26.06;52.00;99447.00;4414975;32;34345;-84
2023/07/13 02:28:09;;;;;;;0.10;0.10;;;;;;;26.03;52.05;99441.97;4429764;32;33298;-84
2023/07/13 02:30:38;;;;;;;0.10;0.10;;;;;;;25.97;52.22;99445.34;4416216;32;32342;-84
2023/07/13 02:33:05;;;;;;;0.00;0.00;;;;;;;26.05;51.92;99453.44;4403765;32;33921;-84
2023/07/13 02:35:33;;;;;;;1.65;0.50;;;;;;;25.81;52.50;99462.50;4418607;32;34851;-84
2023/07/13 02:38:01;;;;;;;0.50;0.50;;;;;;;25.79;52.65;99457.25;4429981;32;34009;-84
2023/07/13 02:40:33;;;;;;;0.40;0.37;;;;;;;25.68;53.18;99460.28;4404408;32;33081;-84
2023/07/13 02:43:00;;;;;;;0.35;0.32;;;;;;;26.12;52.17;99443.63;4415208;32;34049;-84
2023/07/13 02:45:31;;;;;;;0.15;0.15;;;;;;;25.76;52.89;99452.19;4414331;32;34791;-84
2023/07/13 02:47:58;;;;;;;0.85;0.37;;;;;;;25.51;53.86;99469.44;4414441;32;33153;-83
2023/07/13 02:50:26;;;;;;;0.35;0.35;;;;;;;25.40;54.32;99477.88;4415257;32;33567;-83
2023/07/13 02:52:54;;;;;;;5.07;0.65;;;;;;;25.81;53.25;99475.16;4430870;32;34054;-84
2023/07/13 02:55:22;;;;;;;1.10;1.00;;;;;;;25.66;53.90;99477.72;4428065;32;34746;-83
2023/07/13 02:57:49;;;;;;;0.50;0.43;;;;;;;25.67;54.24;99472.12;4416581;32;33776;-83
2023/07/13 03:00:18;;;;;;;0.98;0.88;;;;;;;25.71;54.13;99470.75;4431461;32;33551;-83
2023/07/13 03:02:45;;;;;;;0.03;0.03;;;;;;;25.62;54.02;99474.50;4415819;32;33328;-83
2023/07/13 03:05:14;;;;;;;0.08;0.03;;;;;;;25.36;54.79;99495.50;4416616;32;32725;-84
2023/07/13 03:07:43;;;;;;;0.03;0.03;;;;;;;25.15;55.54;99510.31;4430429;32;34875;-84
2023/07/13 03:10:11;;;;;;;0.20;0.20;;;;;;;25.16;55.24;99513.87;4418011;32;33519;-84
2023/07/13 03:12:39;;;;;;;0.10;0.10;;;;;;;25.26;54.73;99518.13;4416072;32;34778;-84
2023/07/13 03:15:09;;;;;;;1.55;0.90;;;;;;;25.45;54.29;99518.81;4413672;32;32276;-84
2023/07/13 03:17:37;;;;;;;6.50;0.40;;;;;;;25.30;54.85;99526.72;4422102;32;32220;-84
2023/07/13 03:20:07;;;;;;;1.12;0.98;;;;;;;25.18;55.60;99520.81;4430373;32;34724;-84
2023/07/13 03:22:34;;;;;;;0.47;0.32;;;;;;;25.12;56.13;99512.53;4429897;32;33952;-84
2023/07/13 03:25:02;;;;;;;0.55;0.55;;;;;;;25.06;56.62;99514.00;4430504;32;34099;-84
2023/07/13 03:27:30;;;;;;;6.25;1.52;;;;;;;24.99;57.09;99508.44;4391242;32;32124;-84
2023/07/13 03:29:57;;;;;;;0.95;0.77;;;;;;;25.13;56.69;99509.66;4406415;32;33075;-84
2023/07/13 03:32:25;;;;;;;0.65;0.65;;;;;;;25.20;56.54;99504.41;4432012;32;34056;-82
2023/07/13 03:34:53;;;;;;;0.22;0.22;;;;;;;25.24;56.52;99500.38;4403172;32;33546;-84
2023/07/13 03:37:21;;;;;;;1.40;0.80;;;;;;;25.11;56.52;99511.66;4418619;32;32857;-84
2023/07/13 03:39:49;;;;;;;0.25;0.22;;;;;;;25.18;56.19;99509.16;4412827;32;33407;-84
2023/07/13 03:42:17;;;;;;;3.12;0.50;;;;;;;25.34;55.97;99513.72;4428245;32;33946;-84
2023/07/13 03:44:50;;;;;;;2.58;0.95;;;;;;;25.48;55.70;99521.16;4402163;32;32931;-84
2023/07/13 03:47:18;;;;;;;0.57;0.52;;;;;;;25.48;55.91;99523.84;4416238;32;33233;-84
2023/07/13 03:49:46;;;;;;;0.05;0.05;;;;;;;25.39;56.52;99514.06;4431525;32;33590;-84
2023/07/13 03:52:14;;;;;;;1.23;1.05;;;;;;;25.35;56.91;99527.06;4411617;32;33443;-84
2023/07/13 03:54:42;;;;;;;0.88;0.62;;;;;;;25.49;56.55;99515.59;4429965;32;32830;-84
2023/07/13 03:57:10;;;;;;;0.17;0.05;;;;;;;25.50;57.00;99521.84;4410560;32;32083;-84
2023/07/13 03:59:38;;;;;;;0.28;0.28;;;;;;;25.51;57.25;99520.81;4409923;32;33821;-84
2023/07/13 04:02:07;;;;;;;0.62;0.55;;;;;;;25.61;57.03;99517.94;4398793;32;33310;-84
2023/07/13 04:04:35;;;;;;;0.10;0.10;;;;;;;25.81;56.63;99526.56;4408963;32;34067;-84
2023/07/13 04:07:03;;;;;;;1.23;0.47;;;;;;;25.80;56.99;99550.06;4410431;32;32878;-84
2023/07/13 04:09:31;;;;;;;0.52;0.52;;;;;;;25.60;58.19;99563.06;4409513;32;33812;-84
2023/07/13 04:11:59;;;;;;;0.40;0.40;;;;;;;25.72;57.83;99577.06;4409411;32;33948;-84
2023/07/13 04:14:27;;;;;;;1.65;0.22;;;;;;;25.41;59.20;99587.72;4409773;32;33660;-84
2023/07/13 04:16:55;;;;;;;0.55;0.55;;;;;;;25.83;58.21;99587.59;4423322;32;33934;-84
2023/07/13 04:19:23;;;;;;;0.73;0.73;;;;;;;25.98;57.81;99571.50;4408525;32;33246;-84
2023/07/13 04:21:50;;;;;;;2.00;0.62;;;;;;;25.63;58.82;99586.19;4408958;32;33536;-84
2023/07/13 04:24:18;;;;;;;1.65;0.95;;;;;;;25.67;58.49;99591.09;4410114;32;32620;-84
2023/07/13 04:26:46;;;;;;;0.80;0.68;;;;;;;24.98;60.46;99603.13;4414038;32;32130;-84
2023/07/13 04:29:15;;;;;;;0.40;0.40;;;;;;;24.99;60.58;99610.22;4411689;32;32399;-84
2023/07/13 04:31:42;;;;;;;0.10;0.10;;;;;;;25.14;60.12;99614.00;4410820;32;33778;-84
2023/07/13 04:34:11;;;;;;;0.40;0.40;;;;;;;24.85;61.21;99618.94;4409268;32;34066;-84
2023/07/13 04:36:38;;;;;;;0.37;0.37;;;;;;;24.97;61.13;99628.44;4409769;32;33798;-84
2023/07/13 04:39:06;;;;;;;0.20;0.20;;;;;;;25.22;60.25;99626.72;4428784;32;33981;-83
2023/07/13 04:41:34;;;;;;;0.40;0.40;;;;;;;25.16;60.51;99635.44;4397915;32;33450;-83
2023/07/13 04:44:03;;;;;;;0.82;0.82;;;;;;;25.07;61.35;99642.72;4404597;32;34087;-83
2023/07/13 04:46:30;;;;;;;3.20;0.95;;;;;;;24.94;61.66;99655.78;4430544;32;34384;-84
2023/07/13 04:48:58;;;;;;;0.32;0.32;;;;;;;24.97;61.82;99650.03;4400389;32;33818;-83
2023/07/13 04:51:26;;;;;;;0.30;0.30;;;;;;;24.98;61.75;99667.97;4402026;32;33652;-83
2023/07/13 04:53:53;;;;;;;0.52;0.52;;;;;;;24.95;62.34;99679.09;4421750;32;34451;-83
2023/07/13 04:56:28;;;;;;;4.85;0.73;;;;;;;24.83;62.91;99696.56;4396427;32;33174;-83
2023/07/13 04:58:55;;;;;;;1.40;0.47;;;;;;;24.77;63.32;99717.81;4397228;32;32490;-83
2023/07/13 05:01:23;;;;;;;0.55;0.55;;;;;;;24.55;64.64;99741.81;4423586;32;34834;-83
2023/07/13 05:03:51;;;;;;;0.50;0.50;;;;;;;24.59;64.38;99775.56;4408792;32;33979;-84
2023/07/13 05:06:18;;;;;;;0.28;0.25;;;;;;;24.18;66.11;99805.72;4409453;32;33686;-84
2023/07/13 05:08:46;;;;;;;0.70;0.68;;;;;;;23.58;68.93;99835.03;4409375;32;33688;-84
2023/07/13 05:11:13;;;;;;;0.95;0.95;;;;;;;23.68;68.21;99854.72;4423154;32;34787;-84
2023/07/13 05:13:41;;;;;;;0.65;0.55;;;;;;;23.67;68.74;99862.97;4401846;32;33080;-84
2023/07/13 05:16:08;;;;;;;0.77;0.75;;;;;;;23.18;70.10;99876.59;4400879;32;32929;-84
2023/07/13 05:18:37;;;;;;;1.17;0.98;;;;;;;23.49;69.55;99863.72;4421664;32;33890;-84
2023/07/13 05:21:10;;;;;;;2.53;1.37;;;;;;;23.10;70.89;99865.69;4415385;32;33946;-84
2023/07/13 05:23:38;;;;;;;0.20;0.20;;;;;;;23.29;70.26;99875.56;4409650;32;34153;-84
2023/07/13 05:26:06;;;;;;;0.22;0.22;;;;;;;23.02;70.59;99870.97;4410971;32;33697;-84
2023/07/13 05:28:36;;;;;;;3.22;0.68;;;;;;;23.09;70.54;99876.63;4409264;32;32420;-84
2023/07/13 05:31:06;;;;;;;0.00;0.00;;;;;;;22.95;70.16;99864.47;4424353;32;32985;-84
2023/07/13 05:33:34;;;;;;;0.00;0.00;;;;;;;22.63;71.47;99865.59;4411671;32;32780;-84
2023/07/13 05:36:02;;;;;;;0.00;0.00;;;;;;;22.56;71.39;99853.72;4404218;32;33229;-84
2023/07/13 05:38:29;;;;;;;0.30;0.20;;;;;;;22.59;71.74;99848.03;4435602;32;34548;-84
2023/07/13 05:40:57;;;;;;;0.20;0.20;;;;;;;22.25;72.96;99834.16;4412449;32;34020;-84
2023/07/13 05:43:25;;;;;;;1.35;0.68;;;;;;;22.15;73.62;99831.47;4421512;32;32631;-84
2023/07/13 05:45:54;;;;;;;0.52;0.52;;;;;;;22.06;74.19;99823.38;4408852;32;31997;-84
2023/07/13 05:48:22;;;;;;;0.10;0.10;;;;;;;22.15;73.59;99809.97;4408646;32;32834;-84
2023/07/13 05:50:50;;;;;;;0.20;0.15;;;;;;;22.38;72.60;99798.94;4396035;32;32197;-84
2023/07/13 05:53:18;;;;;;;0.13;0.03;;;;;;;22.84;70.42;99782.00;4396010;32;34448;-84
2023/07/13 05:55:50;;;;;;;0.65;0.40;;;;;;;22.86;69.98;99784.53;4425452;32;33622;-84
2023/07/13 05:58:18;;;;;;;0.28;0.28;;;;;;;22.17;73.17;99793.66;4419342;32;33948;-84
2023/07/13 06:00:47;;;;;;;1.60;0.60;;;;;;;22.15;73.77;99780.37;4431207;32;33532;-84
2023/07/13 06:03:15;;;;;;;0.52;0.52;;;;;;;22.03;73.92;99770.75;4408209;32;34562;-84
2023/07/13 06:05:43;;;;;;;1.55;1.08;;;;;;;22.39;72.41;99722.59;4426711;32;33265;-83
2023/07/13 06:08:10;;;;;;;4.03;0.37;;;;;;;22.84;69.84;99641.16;4401412;32;32819;-83
2023/07/13 06:10:38;;;;;;;0.10;0.10;;;;;;;22.50;71.30;99515.25;4411197;32;33822;-83
2023/07/13 06:13:05;;;;;;;0.10;0.10;;;;;;;22.02;72.70;99430.25;4410342;32;32883;-84
2023/07/13 06:15:33;;;;;;;0.73;0.40;;;;;;;21.89;73.02;99421.72;4412415;32;32029;-84
2023/07/13 06:18:01;;;;;;;0.10;0.10;;;;;;;21.83;72.65;99433.03;4399882;32;32294;-83
2023/07/13 06:20:30;;;;;;;0.00;0.00;;;;;;;21.54;75.26;99458.16;4399675;32;32824;-84
2023/07/13 06:22:57;;;;;;;0.03;0.03;;;;;;;21.34;75.67;99467.25;4419691;32;33942;-83
2023/07/13 06:25:27;;;;;;;0.40;0.40;;;;;;;21.73;72.61;99403.50;4423050;32;33584;-84
2023/07/13 06:27:54;;;;;;;0.10;0.10;;;;;;;21.77;72.63;99404.06;4426171;32;33851;-83
2023/07/13 06:30:22;;;;;;;1.40;1.17;;;;;;;21.90;71.40;99369.63;4423210;32;33939;-84
2023/07/13 06:32:50;;;;;;;0.10;0.03;;;;;;;21.70;73.53;99376.97;4418758;32;32672;-83
2023/07/13 06:35:18;;;;;;;0.30;0.20;;;;;;;21.77;74.75;99394.16;4408512;32;33090;-84
2023/07/13 06:37:47;;;;;;;0.32;0.32;;;;;;;22.05;72.18;99370.81;4412283;32;33351;-84
2023/07/13 06:40:14;;;;;;;0.00;0.00;;;;;;;22.48;70.21;99398.87;4408805;32;33505;-84
2023/07/13 06:42:42;;;;;;;0.20;0.17;;;;;;;22.51;69.74;99387.81;4410524;32;33823;-83
2023/07/13 06:45:10;;;;;;;2.03;1.02;;;;;;;22.50;68.54;99372.66;4433648;32;34236;-83
2023/07/13 06:47:37;;;;;;;0.65;0.55;;;;;;;22.11;71.53;99380.12;4416515;32;33834;-83
2023/07/13 06:50:05;;;;;;;0.20;0.20;;;;;;;22.37;71.02;99397.25;4404069;32;33017;-84
2023/07/13 06:52:33;;;;;;;0.05;0.05;;;;;;;22.19;71.95;99399.91;4387400;32;32415;-84
2023/07/13 06:55:01;;;;;;;0.52;0.52;;;;;;;22.29;72.54;99396.31;4405173;32;32843;-84
2023/07/13 06:57:28;;;;;;;1.55;0.80;;;;;;;22.99;68.52;99408.97;4420346;32;33223;-83
2023/07/13 06:59:56;;;;;;;0.10;0.10;;;;;;;23.17;68.76;99425.09;4418956;32;33903;-84
2023/07/13 07:02:23;;;;;;;0.32;0.32;;;;;;;23.16;70.82;99425.25;4423054;32;34945;-84
2023/07/13 07:04:51;;;;;;;0.32;0.32;;;;;;;23.47;70.24;99449.91;4419868;32;33246;-84
2023/07/13 07:07:19;;;;;;;0.60;0.40;;;;;;;24.00;68.61;99441.62;4423846;32;33910;-84
2023/07/13 07:09:46;;;;;;;0.13;0.13;;;;;;;24.13;69.44;99549.09;4427838;32;33621;-84
2023/07/13 07:12:14;;;;;;;0.70;0.25;;;;;;;23.80;69.28;99611.91;4413361;32;34102;-83
2023/07/13 07:14:41;;;;;;;0.30;0.30;;;;;;;23.65;67.52;99619.69;4429186;32;33523;-83
2023/07/13 07:17:09;;;;;;;0.20;0.20;;;;;;;23.62;68.33;99634.28;4410456;32;34025;-84
2023/07/13 07:19:37;;;;;;;0.70;0.20;;;;;;;23.97;68.38;99649.59;4415937;32;34022;-84
2023/07/13 07:22:04;;;;;;;0.00;0.00;;;;;;;23.80;68.76;99652.34;4422920;32;34521;-84
2023/07/13 07:24:32;;;;;;;0.25;0.25;;;;;;;23.95;68.13;99638.13;4410086;32;31676;-83
2023/07/13 07:27:00;;;;;;;0.25;0.25;;;;;;;24.08;67.43;99637.72;4415047;32;33326;-84
2023/07/13 07:29:30;;;;;;;0.52;0.20;;;;;;;24.32;68.04;99641.59;4398019;32;33522;-83
2023/07/13 07:32:01;;;;;;;0.20;0.10;;;;;;;24.34;66.33;99655.78;4429667;32;34912;-83
2023/07/13 07:34:48;;;;;;;0.15;0.15;;;;;;;24.56;67.16;99657.97;4412455;32;31840;-83
2023/07/13 07:37:16;;;;;;;0.68;0.68;;;;;;;24.43;67.39;99662.94;4410030;32;33503;-83
2023/07/13 07:39:46;;;;;;;0.17;0.17;;;;;;;24.86;65.06;99658.44;4411473;32;34753;-84
2023/07/13 07:42:34;;;;;;;0.30;0.30;;;;;;;24.45;66.37;99671.72;4404739;32;32800;-83
2023/07/13 07:45:02;;;;;;;0.28;0.17;;;;;;;25.19;62.39;99659.44;4412981;32;32174;-83
2023/07/13 07:47:30;;;;;;;4.32;0.80;;;;;;;24.77;66.62;99674.59;4410240;32;34614;-83
2023/07/13 07:49:57;;;;;;;0.30;0.30;;;;;;;24.92;67.08;99669.44;4409898;32;34028;-83
2023/07/13 07:52:25;;;;;;;0.20;0.20;;;;;;;25.29;63.25;99673.66;4413558;32;33454;-83
2023/07/13 07:54:52;;;;;;;0.10;0.10;;;;;;;25.30;62.23;99675.34;4415367;32;32285;-83
2023/07/13 07:57:23;;;;;;;0.25;0.25;;;;;;;25.57;61.44;99682.34;4428110;32;33869;-83
2023/07/13 07:59:53;;;;;;;0.20;0.20;;;;;;;25.86;60.65;99679.19;4424704;32;34053;-83
2023/07/13 08:02:24;;;;;;;0.10;0.10;;;;;;;26.31;57.46;99685.97;4393594;32;32996;-84
2023/07/13 08:04:55;;;;;;;0.88;0.20;;;;;;;26.33;59.98;99692.03;4416811;32;33601;-84
2023/07/13 08:07:25;;;;;;;1.48;0.85;;;;;;;26.38;59.03;99683.41;4419589;32;32594;-84
2023/07/13 08:09:53;;;;;;;0.10;0.10;;;;;;;26.64;59.24;99678.66;4425343;32;33581;-84
2023/07/13 08:12:21;;;;;;;0.10;0.10;;;;;;;26.84;56.67;99670.97;4405952;32;34437;-83
2023/07/13 08:14:57;;;;;;;0.20;0.20;;;;;;;26.66;57.57;99676.59;4410585;32;33312;-84
2023/07/13 08:17:25;;;;;;;0.37;0.37;;;;;;;26.44;59.43;99682.75;4397881;32;34148;-83
2023/07/13 08:19:53;;;;;;;0.28;0.28;;;;;;;26.85;55.66;99679.94;4390966;32;33849;-84
2023/07/13 08:22:21;;;;;;;0.10;0.10;;;;;;;26.11;57.51;99681.91;4400334;32;33759;-84
2023/07/13 08:24:55;;;;;;;0.00;0.00;;;;;;;26.48;57.25;99684.09;4413094;32;33295;-84
2023/07/13 08:27:24;;;;;;;2.37;0.85;;;;;;;26.60;56.67;99677.31;4405761;32;33908;-84
2023/07/13 08:29:53;;;;;;;0.00;0.00;;;;;;;26.98;56.47;99680.25;4404330;32;32701;-84
2023/07/13 08:32:22;;;;;;;0.10;0.10;;;;;;;26.95;57.28;99669.75;4398318;32;32732;-84
2023/07/13 08:34:50;;;;;;;0.30;0.30;;;;;;;26.99;56.82;99665.66;4396746;32;32825;-85
2023/07/13 08:37:19;;;;;;;0.30;0.30;;;;;;;27.46;55.25;99670.19;4420663;32;33198;-84
2023/07/13 08:39:47;;;;;;;0.75;0.65;;;;;;;27.87;53.33;99662.66;4405986;32;33175;-84
2023/07/13 08:42:26;;;;;;;0.68;0.37;;;;;;;27.92;53.48;99662.09;4404811;32;33320;-84
2023/07/13 08:45:07;;;;;;;0.22;0.22;;;;;;;28.03;53.24;99665.22;4432802;32;33844;-84
2023/07/13 08:47:39;;;;;;;0.40;0.35;;;;;;;27.68;54.20;99671.22;4397903;32;32735;-83
2023/07/13 08:50:12;;;;;;;0.47;0.32;;;;;;;28.25;52.49;99668.94;4401427;32;34021;-84
2023/07/13 08:52:42;;;;;;;0.30;0.22;;;;;;;28.26;54.54;99670.63;4424136;32;34135;-84
2023/07/13 08:55:28;;;;;;;0.37;0.30;;;;;;;28.53;53.06;99665.59;4410480;32;33534;-84
2023/07/13 08:58:01;;;;;;;0.03;0.03;;;;;;;28.80;50.88;99667.69;4421659;32;33770;-84
2023/07/13 09:00:38;;;;;;;0.25;0.25;;;;;;;28.75;51.38;99669.28;4409870;32;33931;-84
2023/07/13 09:03:13;;;;;;;8.15;0.88;;;;;;;28.89;51.63;99659.44;4413602;32;33759;-84
2023/07/13 09:05:41;;;;;;;0.30;0.28;;;;;;;28.98;50.34;99658.34;4411045;32;33688;-84
2023/07/13 09:08:09;;;;;;;0.43;0.32;;;;;;;29.04;49.32;99657.56;4408836;32;34564;-85
2023/07/13 09:10:46;;;;;;;0.13;0.13;;;;;;;28.71;50.38;99663.38;4410389;32;32316;-84
2023/07/13 09:13:23;;;;;;;0.77;0.77;;;;;;;28.99;49.00;99654.59;4415122;32;34436;-84
2023/07/13 09:15:51;;;;;;;0.30;0.30;;;;;;;29.11;50.13;99660.41;4418531;32;34225;-84
2023/07/13 09:18:35;;;;;;;1.40;0.93;;;;;;;29.38;48.86;99651.50;4405482;32;33871;-84
2023/07/13 09:21:08;;;;;;;0.10;0.10;;;;;;;29.32;49.24;99647.66;4416019;32;32552;-84
2023/07/13 09:23:37;;;;;;;0.50;0.50;;;;;;;29.47;47.76;99657.66;4422389;32;34048;-84
2023/07/13 09:26:17;;;;;;;2.55;0.47;;;;;;;29.06;49.63;99652.81;4408602;32;33728;-84
2023/07/13 09:28:48;;;;;;;1.10;0.50;;;;;;;29.03;50.15;99656.72;4404100;32;33222;-84
2023/07/13 09:31:21;;;;;;;0.62;0.62;;;;;;;29.34;49.89;99664.66;4403701;32;32343;-84
2023/07/13 09:33:50;;;;;;;1.20;0.40;;;;;;;29.21;48.85;99664.50;4409527;32;33858;-84
2023/07/13 09:36:25;;;;;;;0.20;0.20;;;;;;;29.52;48.26;99675.09;4408102;32;32961;-84
2023/07/13 09:39:08;;;;;;;0.57;0.50;;;;;;;29.90;47.11;99674.03;4412607;32;33824;-84
2023/07/13 09:41:38;;;;;;;0.20;0.10;;;;;;;29.56;48.17;99667.41;4425554;32;33988;-84
2023/07/13 09:44:14;;;;;;;0.77;0.25;;;;;;;29.92;47.04;99666.53;4416159;32;33563;-84
2023/07/13 09:47:02;;;;;;;0.43;0.43;;;;;;;29.81;48.09;99670.59;4407161;32;33516;-84
2023/07/13 09:49:36;;;;;;;0.30;0.28;;;;;;;30.21;46.13;99674.56;4405408;32;33847;-84
2023/07/13 09:52:06;;;;;;;1.02;0.60;;;;;;;30.02;47.28;99680.66;4403303;32;32363;-84
2023/07/13 09:54:35;;;;;;;0.20;0.20;;;;;;;30.21;46.25;99682.72;4388897;32;33519;-84
2023/07/13 09:57:12;;;;;;;1.25;0.62;;;;;;;30.31;45.96;99682.38;4407919;32;34086;-84
2023/07/13 09:59:46;;;;;;;0.55;0.55;;;;;;;30.50;44.43;99675.41;4413071;32;32309;-84
2023/07/13 10:02:34;;;;;;;1.85;0.57;;;;;;;30.44;45.56;99687.94;4399048;32;34073;-84
2023/07/13 10:05:10;;;;;;;0.47;0.35;;;;;;;30.60;45.25;99675.88;4412481;32;34848;-85
2023/07/13 10:07:40;;;;;;;1.42;0.50;;;;;;;30.77;44.67;99682.75;4403408;32;32066;-84
2023/07/13 10:10:15;;;;;;;0.52;0.52;;;;;;;29.85;47.31;99680.06;4403742;32;32371;-84
2023/07/13 10:12:43;;;;;;;0.75;0.75;;;;;;;30.57;46.61;99681.72;4412413;32;34008;-84
2023/07/13 10:15:21;;;;;;;0.43;0.43;;;;;;;30.79;44.86;99677.91;4414061;32;33733;-84
2023/07/13 10:17:53;;;;;;;0.25;0.25;;;;;;;31.04;43.54;99677.41;4411072;32;33647;-84
2023/07/13 10:20:21;;;;;;;0.32;0.32;;;;;;;30.75;43.77;99679.38;4402346;32;33058;-84
2023/07/13 10:22:54;;;;;;;0.10;0.10;;;;;;;30.51;44.52;99687.97;4430159;32;33921;-84
2023/07/13 10:25:25;;;;;;;0.20;0.20;;;;;;;30.86;42.90;99675.25;4410660;32;32784;-84
2023/07/13 10:27:56;;;;;;;0.10;0.10;;;;;;;30.80;43.21;99684.22;4412508;32;32481;-84
2023/07/13 10:30:28;;;;;;;0.43;0.30;;;;;;;30.91;44.04;99682.78;4410930;32;33901;-84
2023/07/13 10:32:58;;;;;;;0.30;0.30;;;;;;;30.96;42.57;99677.59;4410932;32;34660;-84
2023/07/13 10:35:28;;;;;;;0.10;0.10;;;;;;;30.99;42.68;99690.81;4397735;32;33438;-85
2023/07/13 10:38:01;;;;;;;0.60;0.60;;;;;;;30.57;44.00;99689.91;4405511;32;32928;-84
2023/07/13 10:40:56;;;;;;;0.20;0.20;;;;;;;31.11;42.66;99673.69;4396020;32;32296;-85
2023/07/13 10:43:26;;;;;;;0.50;0.50;;;;;;;31.07;42.72;99682.47;4416927;32;33423;-85
2023/07/13 10:45:55;;;;;;;1.08;0.47;;;;;;;31.15;42.77;99679.59;4388723;32;33910;-84
2023/07/13 10:48:23;;;;;;;0.75;0.55;;;;;;;31.51;41.79;99668.38;4413367;32;33024;-85
2023/07/13 10:50:55;;;;;;;0.15;0.15;;;;;;;31.75;42.31;99680.63;4412907;32;33018;-85
2023/07/13 10:53:34;;;;;;;2.72;0.40;;;;;;;32.12;41.65;99681.94;4414331;32;33190;-85
2023/07/13 10:56:05;;;;;;;0.37;0.37;;;;;;;31.97;41.08;99670.41;4418416;32;32389;-84
2023/07/13 10:58:38;;;;;;;2.22;0.80;;;;;;;31.94;40.36;99672.69;4410102;32;31963;-84
2023/07/13 11:01:06;;;;;;;0.03;0.03;;;;;;;32.14;41.39;99659.88;4409906;32;32423;-85
2023/07/13 11:03:37;;;;;;;0.20;0.10;;;;;;;32.18;39.98;99658.41;4430330;32;34684;-85
2023/07/13 11:06:11;;;;;;;0.32;0.20;;;;;;;31.86;40.45;99666.41;4405256;32;33189;-84
2023/07/13 11:08:48;;;;;;;0.20;0.20;;;;;;;31.60;41.75;99671.78;4427066;32;35029;-84
2023/07/13 11:11:25;;;;;;;0.17;0.17;;;;;;;31.71;42.80;99670.31;4432835;32;33792;-85
2023/07/13 11:13:54;;;;;;;0.93;0.85;;;;;;;32.37;39.97;99662.22;4418448;32;33716;-84
2023/07/13 11:16:22;;;;;;;0.57;0.57;;;;;;;31.95;40.02;99674.38;4411396;32;34805;-85
2023/07/13 11:19:00;;;;;;;0.20;0.20;;;;;;;32.24;39.21;99663.06;4411385;32;33200;-85
2023/07/13 11:21:30;;;;;;;0.10;0.10;;;;;;;31.92;41.05;99674.81;4427234;32;33921;-85
2023/07/13 11:24:02;;;;;;;0.17;0.17;;;;;;;32.04;40.99;99663.03;4428518;32;34198;-85
2023/07/13 11:26:46;;;;;;;0.62;0.20;;;;;;;31.93;40.91;99658.19;4402681;32;32764;-85
2023/07/13 11:29:17;;;;;;;0.30;0.30;;;;;;;32.03;40.62;99660.53;4427942;32;34277;-85
2023/07/13 11:31:56;;;;;;;0.65;0.30;;;;;;;31.91;40.73;99662.22;4415028;32;32337;-85
2023/07/13 11:34:36;;;;;;;1.02;0.60;;;;;;;31.75;41.17;99658.78;4404106;32;33967;-85
2023/07/13 11:37:11;;;;;;;2.30;1.30;;;;;;;31.56;42.98;99659.59;4401351;32;33254;-85
2023/07/13 11:39:42;;;;;;;0.20;0.20;;;;;;;31.72;43.04;99666.56;4410310;32;33363;-85
2023/07/13 11:42:16;;;;;;;1.15;0.10;;;;;;;31.71;40.82;99656.66;4422450;32;33482;-85
2023/07/13 11:44:46;;;;;;;3.72;0.30;;;;;;;31.69;40.66;99659.63;4417773;32;33419;-85
2023/07/13 11:47:34;;;;;;;0.40;0.40;;;;;;;31.87;40.67;99651.69;4406110;32;34143;-84